createdAt,value
2022-07-29T00:00:59.805Z,17.3
2022-07-29T00:01:59.854Z,17.2
2022-07-29T00:02:59.984Z,17.1
2022-07-29T00:03:59.143Z,17.2
2022-07-29T00:04:59.216Z,17.2
2022-07-29T00:05:59.270Z,17.4
2022-07-29T00:06:59.886Z,17.4
2022-07-29T00:07:59.934Z,17.4
2022-07-29T00:08:58.985Z,17.2
2022-07-29T00:09:59.035Z,17.2
2022-07-29T00:10:59.084Z,17.1
2022-07-29T00:11:59.134Z,17.2
2022-07-29T00:12:59.181Z,17.4
2022-07-29T00:13:59.238Z,17.4
2022-07-29T00:14:59.301Z,17.5
2022-07-29T00:16:03.589Z,17.4
2022-07-29T00:16:59.374Z,17.3
2022-07-29T00:17:59.428Z,17.2
2022-07-29T00:19:02.211Z,17.2
2022-07-29T00:19:59.499Z,17.1
2022-07-29T00:20:59.724Z,17.2
2022-07-29T00:21:59.784Z,17.4
2022-07-29T00:22:59.833Z,17.4
2022-07-29T00:23:59.884Z,17.5
2022-07-29T00:24:58.945Z,17.4
2022-07-29T00:25:58.999Z,17.2
2022-07-29T00:26:59.047Z,17.2
2022-07-29T00:27:59.104Z,17.3
2022-07-29T00:29:31.055Z,17.4
2022-07-29T00:29:59.168Z,17.5
2022-07-29T00:30:59.227Z,17.5
2022-07-29T00:31:59.344Z,17.3
2022-07-29T00:32:59.483Z,17.3
2022-07-29T00:33:59.531Z,17.2
2022-07-29T00:34:59.589Z,17.2
2022-07-29T00:35:59.657Z,17.2
2022-07-29T00:36:59.713Z,17.3
2022-07-29T00:37:59.762Z,17.4
2022-07-29T00:38:59.814Z,17.4
2022-07-29T00:39:59.865Z,17.3
2022-07-29T00:40:58.916Z,17.2
2022-07-29T00:41:58.977Z,17.3
2022-07-29T00:42:59.028Z,17.3
2022-07-29T00:43:59.504Z,17.3
2022-07-29T00:44:59.554Z,17.3
2022-07-29T00:45:59.607Z,17.2
2022-07-29T00:46:59.728Z,17.1
2022-07-29T00:47:59.832Z,17
2022-07-29T00:48:58.934Z,17
2022-07-29T00:49:59.006Z,17.1
2022-07-29T00:50:59.055Z,17.2
2022-07-29T00:51:59.108Z,17.3
2022-07-29T00:52:59.566Z,17.4
2022-07-29T00:53:59.632Z,17.4
2022-07-29T00:55:01.719Z,17.3
2022-07-29T00:55:59.701Z,17.1
2022-07-29T00:56:59.789Z,17
2022-07-29T00:57:58.861Z,17.1
2022-07-29T00:58:58.909Z,17.2
2022-07-29T00:59:58.960Z,17.4
2022-07-29T01:00:59.098Z,17.5
2022-07-29T01:01:59.336Z,17.4
2022-07-29T01:02:59.406Z,17.2
2022-07-29T01:03:59.460Z,17.2
2022-07-29T01:04:59.514Z,17.1
2022-07-29T01:05:59.564Z,17.2
2022-07-29T01:06:59.703Z,17.4
2022-07-29T01:07:59.793Z,17.4
2022-07-29T01:08:58.844Z,17.2
2022-07-29T01:09:58.907Z,17
2022-07-29T01:10:58.956Z,17.1
2022-07-29T01:11:59.003Z,16.9
2022-07-29T01:12:59.062Z,16.9
2022-07-29T01:13:59.110Z,17
2022-07-29T01:14:59.160Z,17.2
2022-07-29T01:15:59.260Z,17.2
2022-07-29T01:16:59.332Z,17.3
2022-07-29T01:17:59.394Z,17.2
2022-07-29T01:18:59.774Z,17.2
2022-07-29T01:19:58.835Z,17.2
2022-07-29T01:21:01.966Z,17.3
2022-07-29T01:22:01.027Z,17.4
2022-07-29T01:23:01.074Z,17.4
2022-07-29T01:24:01.139Z,17.2
2022-07-29T01:25:01.200Z,17.1
2022-07-29T01:26:01.267Z,17
2022-07-29T01:27:01.324Z,17
2022-07-29T01:28:01.379Z,17.2
2022-07-29T01:29:01.428Z,17.3
2022-07-29T01:30:01.435Z,17.2
2022-07-29T01:31:01.483Z,16.9
2022-07-29T01:32:01.373Z,16.8
2022-07-29T01:33:01.555Z,16.7
2022-07-29T01:34:01.611Z,16.9
2022-07-29T01:35:01.673Z,17
2022-07-29T01:36:01.743Z,17
2022-07-29T01:37:01.821Z,16.9
2022-07-29T01:38:01.885Z,16.7
2022-07-29T01:39:00.947Z,16.7
2022-07-29T01:40:00.996Z,16.7
2022-07-29T01:41:01.046Z,16.9
2022-07-29T01:42:01.097Z,16.9
2022-07-29T01:43:01.150Z,17
2022-07-29T01:44:01.210Z,16.9
2022-07-29T01:45:01.258Z,16.8
2022-07-29T01:46:01.331Z,16.7
2022-07-29T01:47:01.458Z,16.7
2022-07-29T01:48:01.567Z,16.8
2022-07-29T01:49:01.636Z,16.9
2022-07-29T01:50:01.723Z,16.9
2022-07-29T01:51:01.775Z,16.7
2022-07-29T01:52:01.826Z,16.6
2022-07-29T01:53:01.880Z,16.5
2022-07-29T01:54:00.929Z,16.6
2022-07-29T01:55:00.976Z,16.7
2022-07-29T01:56:01.026Z,16.7
2022-07-29T01:57:01.074Z,16.6
2022-07-29T01:58:01.122Z,16.5
2022-07-29T01:59:01.179Z,16.3
2022-07-29T02:00:01.230Z,16.4
2022-07-29T02:01:01.292Z,16.4
2022-07-29T02:02:01.429Z,16.5
2022-07-29T02:03:01.549Z,16.7
2022-07-29T02:04:01.603Z,16.5
2022-07-29T02:05:01.700Z,16.4
2022-07-29T02:06:01.765Z,16.4
2022-07-29T02:07:01.823Z,16.5
2022-07-29T02:08:00.874Z,16.7
2022-07-29T02:09:00.962Z,16.8
2022-07-29T02:10:01.011Z,16.7
2022-07-29T02:11:01.067Z,16.5
2022-07-29T02:12:01.117Z,16.6
2022-07-29T02:13:01.172Z,16.5
2022-07-29T02:14:01.246Z,16.4
2022-07-29T02:15:01.301Z,16.6
2022-07-29T02:16:01.395Z,16.7
2022-07-29T02:17:01.484Z,16.7
2022-07-29T02:18:01.534Z,16.8
2022-07-29T02:19:01.612Z,16.7
2022-07-29T02:20:01.666Z,16.6
2022-07-29T02:21:01.783Z,16.5
2022-07-29T02:22:00.860Z,16.6
2022-07-29T02:23:00.915Z,16.7
2022-07-29T02:24:00.964Z,16.7
2022-07-29T02:25:01.059Z,16.6
2022-07-29T02:26:00.857Z,16.4
2022-07-29T02:27:00.910Z,16.3
2022-07-29T02:28:00.963Z,16.2
2022-07-29T02:29:01.021Z,16.3
2022-07-29T02:30:01.072Z,16.4
2022-07-29T02:31:01.155Z,16.5
2022-07-29T02:32:01.244Z,16.4
2022-07-29T02:33:01.296Z,16.4
2022-07-29T02:34:01.343Z,16.4
2022-07-29T02:35:01.393Z,16.5
2022-07-29T02:36:01.457Z,16.5
2022-07-29T02:37:01.511Z,16.5
2022-07-29T02:38:01.558Z,16.4
2022-07-29T02:39:01.633Z,16.5
2022-07-29T02:40:01.684Z,16.5
2022-07-29T02:41:01.731Z,16.3
2022-07-29T02:42:00.789Z,16.3
2022-07-29T02:43:00.839Z,16.3
2022-07-29T02:44:00.890Z,16.3
2022-07-29T02:45:00.937Z,16.4
2022-07-29T02:46:01.061Z,16.6
2022-07-29T02:47:01.189Z,16.7
2022-07-29T02:48:01.302Z,16.5
2022-07-29T02:49:01.473Z,16.6
2022-07-29T02:50:01.614Z,16.5
2022-07-29T02:51:01.663Z,16.4
2022-07-29T02:52:01.708Z,16.5
2022-07-29T02:53:01.753Z,16.7
2022-07-29T02:54:00.806Z,16.8
2022-07-29T02:55:00.875Z,16.6
2022-07-29T02:56:00.929Z,16.5
2022-07-29T02:57:00.975Z,16.6
2022-07-29T02:58:01.032Z,16.7
2022-07-29T02:59:01.085Z,16.8
2022-07-29T03:00:01.135Z,16.8
2022-07-29T03:01:01.184Z,16.7
2022-07-29T03:02:01.308Z,16.5
2022-07-29T03:03:01.414Z,16.4
2022-07-29T03:04:01.463Z,16.5
2022-07-29T03:05:01.584Z,16.6
2022-07-29T03:06:01.651Z,16.7
2022-07-29T03:07:01.706Z,16.8
2022-07-29T03:08:00.767Z,16.8
2022-07-29T03:09:00.819Z,16.5
2022-07-29T03:10:00.884Z,16.4
2022-07-29T03:11:00.931Z,16.3
2022-07-29T03:12:00.981Z,16.3
2022-07-29T03:13:01.046Z,16.4
2022-07-29T03:14:01.117Z,16.6
2022-07-29T03:15:01.168Z,16.6
2022-07-29T03:16:01.323Z,16.4
2022-07-29T03:17:01.410Z,16.2
2022-07-29T03:18:01.458Z,16.2
2022-07-29T03:19:01.509Z,16.3
2022-07-29T03:20:01.559Z,16.6
2022-07-29T03:21:01.652Z,16.6
2022-07-29T03:22:00.713Z,16.4
2022-07-29T03:23:00.770Z,16.3
2022-07-29T03:24:00.819Z,16.2
2022-07-29T03:25:00.870Z,16.3
2022-07-29T03:26:00.919Z,16.4
2022-07-29T03:27:00.985Z,16.4
2022-07-29T03:28:01.036Z,16.3
2022-07-29T03:29:01.087Z,16.2
2022-07-29T03:30:01.150Z,16.1
2022-07-29T03:31:01.276Z,16.1
2022-07-29T03:32:00.774Z,16.2
2022-07-29T03:33:00.753Z,16.3
2022-07-29T03:34:01.341Z,16.4
2022-07-29T03:35:01.386Z,16.3
2022-07-29T03:36:01.441Z,16.1
2022-07-29T03:37:01.503Z,16
2022-07-29T03:38:01.554Z,16.1
2022-07-29T03:39:01.603Z,16.3
2022-07-29T03:40:00.655Z,16.4
2022-07-29T03:41:00.715Z,16.3
2022-07-29T03:42:00.768Z,16.1
2022-07-29T03:43:00.827Z,16
2022-07-29T03:44:00.874Z,16
2022-07-29T03:45:00.922Z,16.1
2022-07-29T03:46:01.019Z,16.2
2022-07-29T03:47:01.094Z,16.1
2022-07-29T03:48:01.417Z,15.9
2022-07-29T03:49:01.546Z,15.7
2022-07-29T03:50:00.652Z,15.8
2022-07-29T03:51:00.711Z,15.9
2022-07-29T03:52:00.763Z,16.1
2022-07-29T03:53:00.809Z,16.2
2022-07-29T03:54:02.938Z,16.1
2022-07-29T03:55:00.857Z,16
2022-07-29T03:56:00.906Z,15.9
2022-07-29T03:57:00.956Z,15.8
2022-07-29T03:58:01.004Z,15.9
2022-07-29T03:59:01.056Z,16.1
2022-07-29T04:00:01.101Z,16.1
2022-07-29T04:01:01.157Z,15.9
2022-07-29T04:02:01.263Z,15.7
2022-07-29T04:03:01.460Z,15.7
2022-07-29T04:04:01.588Z,15.6
2022-07-29T04:05:00.738Z,15.7
2022-07-29T04:06:00.788Z,15.9
2022-07-29T04:07:00.836Z,16
2022-07-29T04:08:00.890Z,15.7
2022-07-29T04:09:00.940Z,15.5
2022-07-29T04:10:00.991Z,15.4
2022-07-29T04:11:01.044Z,15.5
2022-07-29T04:12:02.809Z,15.6
2022-07-29T04:13:01.115Z,15.7
2022-07-29T04:14:01.170Z,15.6
2022-07-29T04:15:01.223Z,15.6
2022-07-29T04:16:01.296Z,15.6
2022-07-29T04:17:01.393Z,15.8
2022-07-29T04:18:01.448Z,16
2022-07-29T04:19:01.507Z,16.1
2022-07-29T04:20:01.554Z,15.8
2022-07-29T04:21:00.746Z,15.7
2022-07-29T04:22:00.812Z,15.5
2022-07-29T04:23:00.869Z,15.4
2022-07-29T04:24:00.923Z,15.5
2022-07-29T04:25:03.870Z,15.7
2022-07-29T04:26:00.981Z,15.7
2022-07-29T04:27:01.032Z,15.6
2022-07-29T04:28:01.155Z,15.4
2022-07-29T04:29:01.262Z,15.3
2022-07-29T04:30:01.313Z,15.4
2022-07-29T04:31:01.405Z,15.5
2022-07-29T04:32:01.490Z,15.6
2022-07-29T04:33:00.551Z,15.6
2022-07-29T04:34:00.599Z,15.4
2022-07-29T04:35:00.650Z,15.2
2022-07-29T04:36:00.713Z,15
2022-07-29T04:37:01.173Z,14.9
2022-07-29T04:38:01.224Z,15
2022-07-29T04:39:01.275Z,15.1
2022-07-29T04:40:01.328Z,15.4
2022-07-29T04:41:01.389Z,15.2
2022-07-29T04:42:00.750Z,15.3
2022-07-29T04:43:01.305Z,15.3
2022-07-29T04:44:01.313Z,15.4
2022-07-29T04:45:01.204Z,15.6
2022-07-29T04:46:01.558Z,15.7
2022-07-29T04:47:00.648Z,15.4
2022-07-29T04:48:00.722Z,15.4
2022-07-29T04:49:00.844Z,15.3
2022-07-29T04:50:00.953Z,15.4
2022-07-29T04:51:01.005Z,15.5
2022-07-29T04:52:01.106Z,15.6
2022-07-29T04:53:01.191Z,15.5
2022-07-29T04:54:01.242Z,15.5
2022-07-29T04:55:01.292Z,15.5
2022-07-29T04:56:01.344Z,15.7
2022-07-29T04:57:01.398Z,15.9
2022-07-29T04:58:01.507Z,15.9
2022-07-29T04:59:00.509Z,15.8
2022-07-29T05:00:00.571Z,15.8
2022-07-29T05:01:00.622Z,15.8
2022-07-29T05:02:00.782Z,15.9
2022-07-29T05:03:01.086Z,16
2022-07-29T05:04:01.260Z,16.1
2022-07-29T05:05:01.322Z,15.9
2022-07-29T05:06:01.402Z,15.7
2022-07-29T05:07:00.453Z,15.7
2022-07-29T05:08:00.505Z,15.8
2022-07-29T05:09:00.568Z,16
2022-07-29T05:10:00.636Z,16.2
2022-07-29T05:11:01.777Z,16.1
2022-07-29T05:12:00.696Z,16.1
2022-07-29T05:13:00.760Z,16
2022-07-29T05:14:00.822Z,16
2022-07-29T05:15:00.704Z,16.1
2022-07-29T05:16:00.818Z,16.1
2022-07-29T05:17:00.922Z,16.2
2022-07-29T05:18:00.971Z,16.1
2022-07-29T05:19:01.026Z,16.1
2022-07-29T05:20:01.076Z,16
2022-07-29T05:21:01.124Z,16.1
2022-07-29T05:22:01.336Z,16.1
2022-07-29T05:23:01.385Z,16.1
2022-07-29T05:24:00.434Z,16
2022-07-29T05:25:03.259Z,16
2022-07-29T05:26:00.495Z,16
2022-07-29T05:27:00.548Z,16.1
2022-07-29T05:28:00.610Z,16.1
2022-07-29T05:29:00.678Z,16
2022-07-29T05:30:00.730Z,15.9
2022-07-29T05:31:00.881Z,16
2022-07-29T05:32:01.000Z,16.1
2022-07-29T05:33:01.051Z,16.1
2022-07-29T05:34:01.100Z,16.2
2022-07-29T05:35:01.152Z,16.1
2022-07-29T05:36:01.295Z,16.1
2022-07-29T05:37:01.374Z,16.1
2022-07-29T05:38:00.431Z,16.2
2022-07-29T05:39:00.480Z,16.3
2022-07-29T05:40:00.531Z,16.3
2022-07-29T05:41:00.670Z,16.3
2022-07-29T05:42:00.803Z,16.2
2022-07-29T05:43:00.852Z,16.2
2022-07-29T05:44:00.901Z,16.2
2022-07-29T05:45:00.949Z,16.3
2022-07-29T05:46:01.228Z,16.3
2022-07-29T05:47:00.380Z,16.4
2022-07-29T05:48:00.428Z,16.3
2022-07-29T05:49:00.567Z,16.3
2022-07-29T05:50:00.656Z,16.4
2022-07-29T05:51:00.705Z,16.5
2022-07-29T05:52:00.755Z,16.5
2022-07-29T05:53:00.807Z,16.5
2022-07-29T05:54:00.819Z,16.5
2022-07-29T05:55:00.866Z,16.4
2022-07-29T05:56:00.930Z,16.4
2022-07-29T05:57:00.979Z,16.4
2022-07-29T05:58:01.036Z,16.5
2022-07-29T05:59:01.096Z,16.5
2022-07-29T06:00:01.150Z,16.5
2022-07-29T06:01:01.279Z,16.6
2022-07-29T06:02:00.442Z,16.7
2022-07-29T06:03:00.542Z,16.8
2022-07-29T06:04:00.637Z,16.8
2022-07-29T06:05:00.788Z,16.8
2022-07-29T06:06:00.918Z,16.7
2022-07-29T06:07:00.982Z,16.6
2022-07-29T06:08:01.034Z,16.6
2022-07-29T06:09:01.085Z,16.6
2022-07-29T06:10:01.094Z,16.6
2022-07-29T06:11:01.144Z,16.6
2022-07-29T06:12:01.194Z,16.8
2022-07-29T06:13:01.247Z,16.7
2022-07-29T06:14:00.313Z,16.6
2022-07-29T06:15:00.374Z,16.6
2022-07-29T06:16:00.465Z,16.8
2022-07-29T06:17:00.593Z,16.9
2022-07-29T06:18:01.823Z,17
2022-07-29T06:19:00.440Z,17
2022-07-29T06:20:00.501Z,16.9
2022-07-29T06:21:00.551Z,16.8
2022-07-29T06:22:00.638Z,16.8
2022-07-29T06:23:00.715Z,16.8
2022-07-29T06:24:00.788Z,16.9
2022-07-29T06:25:00.964Z,17
2022-07-29T06:26:01.156Z,17
2022-07-29T06:27:01.208Z,16.8
2022-07-29T06:28:01.256Z,16.8
2022-07-29T06:29:00.333Z,16.7
2022-07-29T06:30:00.389Z,16.7
2022-07-29T06:31:00.480Z,16.8
2022-07-29T06:32:00.588Z,16.9
2022-07-29T06:33:00.653Z,17
2022-07-29T06:34:00.718Z,16.8
2022-07-29T06:35:24.705Z,16.8
2022-07-29T06:36:00.779Z,16.8
2022-07-29T06:37:00.842Z,16.8
2022-07-29T06:38:00.889Z,16.9
2022-07-29T06:39:00.943Z,16.9
2022-07-29T06:40:00.826Z,17
2022-07-29T06:41:00.884Z,17.1
2022-07-29T06:42:00.970Z,17.2
2022-07-29T06:43:01.016Z,17.2
2022-07-29T06:44:01.073Z,17.2
2022-07-29T06:45:03.026Z,17.3
2022-07-29T06:46:01.217Z,17.4
2022-07-29T06:47:00.317Z,17.3
2022-07-29T06:48:00.374Z,17.3
2022-07-29T06:49:00.491Z,17.3
2022-07-29T06:50:00.569Z,17.3
2022-07-29T06:51:00.615Z,17.3
2022-07-29T06:52:00.671Z,17.4
2022-07-29T06:53:00.726Z,17.4
2022-07-29T06:54:02.004Z,17.5
2022-07-29T06:55:00.793Z,17.6
2022-07-29T06:56:00.837Z,17.6
2022-07-29T06:57:00.883Z,17.5
2022-07-29T06:58:00.931Z,17.6
2022-07-29T06:59:01.424Z,17.7
2022-07-29T07:00:00.695Z,17.9
2022-07-29T07:01:00.781Z,18
2022-07-29T07:02:00.894Z,17.9
2022-07-29T07:03:00.947Z,18
2022-07-29T07:04:01.000Z,18
2022-07-29T07:05:01.048Z,18.1
2022-07-29T07:06:01.116Z,18.2
2022-07-29T07:07:00.183Z,18.3
2022-07-29T07:08:00.231Z,18.4
2022-07-29T07:09:00.281Z,18.4
2022-07-29T07:10:00.330Z,18.5
2022-07-29T07:11:00.384Z,18.6
2022-07-29T07:12:00.434Z,18.6
2022-07-29T07:13:00.487Z,18.7
2022-07-29T07:14:03.298Z,18.7
2022-07-29T07:15:00.545Z,18.7
2022-07-29T07:16:00.594Z,18.8
2022-07-29T07:17:00.693Z,18.9
2022-07-29T07:18:00.779Z,19.1
2022-07-29T07:19:00.841Z,19.2
2022-07-29T07:20:00.944Z,19.2
2022-07-29T07:21:01.016Z,19.2
2022-07-29T07:22:01.100Z,19.2
2022-07-29T07:23:00.574Z,19.3
2022-07-29T07:24:00.681Z,19.4
2022-07-29T07:25:00.729Z,19.5
2022-07-29T07:26:00.784Z,19.6
2022-07-29T07:27:00.847Z,19.8
2022-07-29T07:28:00.897Z,19.7
2022-07-29T07:29:00.950Z,19.8
2022-07-29T07:30:01.029Z,19.7
2022-07-29T07:31:01.097Z,19.7
2022-07-29T07:32:01.023Z,19.8
2022-07-29T07:33:00.221Z,19.8
2022-07-29T07:34:00.272Z,19.7
2022-07-29T07:35:00.326Z,19.7
2022-07-29T07:36:00.375Z,19.7
2022-07-29T07:37:00.429Z,19.7
2022-07-29T07:38:00.488Z,19.8
2022-07-29T07:39:00.614Z,19.7
2022-07-29T07:40:00.663Z,19.7
2022-07-29T07:41:00.717Z,19.7
2022-07-29T07:42:00.780Z,19.8
2022-07-29T07:43:00.858Z,20
2022-07-29T07:44:00.906Z,19.9
2022-07-29T07:45:16.737Z,20.1
2022-07-29T07:46:01.024Z,20.1
2022-07-29T07:47:03.784Z,20
2022-07-29T07:48:00.111Z,20
2022-07-29T07:49:00.200Z,20.2
2022-07-29T07:50:00.279Z,20.3
2022-07-29T07:51:00.324Z,20.3
2022-07-29T07:52:00.384Z,20.2
2022-07-29T07:53:00.503Z,20.1
2022-07-29T07:54:00.682Z,20.2
2022-07-29T07:55:00.680Z,20.2
2022-07-29T07:56:10.281Z,20.3
2022-07-29T07:57:00.738Z,20.4
2022-07-29T07:58:00.788Z,20.4
2022-07-29T07:59:00.851Z,20.3
2022-07-29T08:00:00.903Z,20.4
2022-07-29T08:01:01.037Z,20.4
2022-07-29T08:02:00.280Z,20.5
2022-07-29T08:03:00.438Z,20.5
2022-07-29T08:04:00.569Z,20.4
2022-07-29T08:05:00.620Z,20.4
2022-07-29T08:06:00.667Z,20.4
2022-07-29T08:07:00.722Z,20.4
2022-07-29T08:08:00.771Z,20.6
2022-07-29T08:09:19.708Z,20.8
2022-07-29T08:10:00.843Z,20.8
2022-07-29T08:11:04.254Z,20.8
2022-07-29T08:12:00.891Z,20.8
2022-07-29T08:13:00.941Z,20.8
2022-07-29T08:14:01.007Z,21
2022-07-29T08:15:00.060Z,20.9
2022-07-29T08:16:00.124Z,20.9
2022-07-29T08:17:00.282Z,20.9
2022-07-29T08:18:02.294Z,20.9
2022-07-29T08:19:00.405Z,21.1
2022-07-29T08:20:00.458Z,21.1
2022-07-29T08:21:00.524Z,21
2022-07-29T08:22:00.621Z,21
2022-07-29T08:23:00.679Z,21.3
2022-07-29T08:24:04.119Z,21.5
2022-07-29T08:25:00.741Z,21.6
2022-07-29T08:26:00.789Z,21.7
2022-07-29T08:27:00.847Z,21.7
2022-07-29T08:28:00.893Z,21.5
2022-07-29T08:29:00.945Z,21.5
2022-07-29T08:30:00.035Z,21.5
2022-07-29T08:31:00.086Z,21.5
2022-07-29T08:32:00.210Z,21.5
2022-07-29T08:33:00.047Z,21.4
2022-07-29T08:34:00.146Z,21.3
2022-07-29T08:35:00.202Z,21.2
2022-07-29T08:36:00.360Z,21.4
2022-07-29T08:37:00.409Z,21.2
2022-07-29T08:38:00.469Z,21.1
2022-07-29T08:39:00.911Z,21.4
2022-07-29T08:39:59.978Z,21.5
2022-07-29T08:41:00.027Z,21.5
2022-07-29T08:42:00.198Z,21.7
2022-07-29T08:43:00.397Z,21.7
2022-07-29T08:44:00.448Z,21.7
2022-07-29T08:45:00.498Z,21.7
2022-07-29T08:46:00.582Z,21.6
2022-07-29T08:47:00.652Z,21.7
2022-07-29T08:48:00.705Z,21.7
2022-07-29T08:49:00.836Z,21.6
2022-07-29T08:49:59.947Z,21.7
2022-07-29T08:51:00.000Z,21.7
2022-07-29T08:52:00.131Z,21.7
2022-07-29T08:53:00.443Z,21.7
2022-07-29T08:54:00.525Z,21.8
2022-07-29T08:55:00.580Z,21.9
2022-07-29T08:56:00.671Z,21.9
2022-07-29T08:57:00.733Z,21.9
2022-07-29T08:57:59.982Z,21.7
2022-07-29T08:59:00.215Z,21.7
2022-07-29T09:00:03.637Z,21.7
2022-07-29T09:01:00.248Z,21.7
2022-07-29T09:02:00.352Z,21.9
2022-07-29T09:03:00.502Z,21.9
2022-07-29T09:04:00.591Z,21.9
2022-07-29T09:05:00.661Z,21.9
2022-07-29T09:06:00.710Z,22
2022-07-29T09:07:00.763Z,21.9
2022-07-29T09:08:00.824Z,22.1
2022-07-29T09:09:00.871Z,22.5
2022-07-29T09:09:59.933Z,22.6
2022-07-29T09:10:59.992Z,22.5
2022-07-29T09:12:00.000Z,22.7
2022-07-29T09:13:00.063Z,22.5
2022-07-29T09:14:00.154Z,22.5
2022-07-29T09:15:00.215Z,22.6
2022-07-29T09:16:01.796Z,22.6
2022-07-29T09:17:00.510Z,22.5
2022-07-29T09:18:00.379Z,22.6
2022-07-29T09:19:00.436Z,22.9
2022-07-29T09:20:00.492Z,22.9
2022-07-29T09:21:00.545Z,22.6
2022-07-29T09:22:01.195Z,22.6
2022-07-29T09:23:00.791Z,22.5
2022-07-29T09:24:00.842Z,22.6
2022-07-29T09:24:59.890Z,22.7
2022-07-29T09:25:59.940Z,22.7
2022-07-29T09:26:59.996Z,22.6
2022-07-29T09:28:00.045Z,22.7
2022-07-29T09:29:00.113Z,22.5
2022-07-29T09:30:00.251Z,22.6
2022-07-29T09:31:00.336Z,22.7
2022-07-29T09:32:00.461Z,22.6
2022-07-29T09:33:00.565Z,22.7
2022-07-29T09:34:00.613Z,22.5
2022-07-29T09:35:00.361Z,22.5
2022-07-29T09:36:00.407Z,22.5
2022-07-29T09:36:59.941Z,22.5
2022-07-29T09:37:59.992Z,22.3
2022-07-29T09:39:00.042Z,22.4
2022-07-29T09:40:00.125Z,22.5
2022-07-29T09:41:05.626Z,22.4
2022-07-29T09:42:00.198Z,22.4
2022-07-29T09:43:00.260Z,22.5
2022-07-29T09:44:00.308Z,22.4
2022-07-29T09:45:00.358Z,22.4
2022-07-29T09:46:00.408Z,22.5
2022-07-29T09:47:00.626Z,22.5
2022-07-29T09:48:00.708Z,22.6
2022-07-29T09:49:00.801Z,22.6
2022-07-29T09:49:59.879Z,22.7
2022-07-29T09:50:59.931Z,22.9
2022-07-29T09:51:59.981Z,22.9
2022-07-29T09:53:00.032Z,22.7
2022-07-29T09:54:00.086Z,22.7
2022-07-29T09:55:00.147Z,22.7
2022-07-29T09:56:00.199Z,22.5
2022-07-29T09:57:00.248Z,22.4
2022-07-29T09:58:00.297Z,22.5
2022-07-29T09:59:00.347Z,22.6
2022-07-29T10:00:00.399Z,22.6
2022-07-29T10:01:00.500Z,22.5
2022-07-29T10:02:00.609Z,22.5
2022-07-29T10:03:00.689Z,22.5
2022-07-29T10:04:00.770Z,22.3
2022-07-29T10:04:59.821Z,22.2
2022-07-29T10:05:59.889Z,22.4
2022-07-29T10:07:04.165Z,22.6
2022-07-29T10:07:59.946Z,22.7
2022-07-29T10:08:59.996Z,22.8
2022-07-29T10:10:00.049Z,22.8
2022-07-29T10:11:00.125Z,22.8
2022-07-29T10:12:00.400Z,22.6
2022-07-29T10:13:04.536Z,22.6
2022-07-29T10:14:00.544Z,22.5
2022-07-29T10:15:00.592Z,22.7
2022-07-29T10:16:00.700Z,22.8
2022-07-29T10:16:59.794Z,22.6
2022-07-29T10:17:59.844Z,22.6
2022-07-29T10:18:59.890Z,22.6
2022-07-29T10:19:59.946Z,22.6
2022-07-29T10:20:59.996Z,22.7
2022-07-29T10:22:00.369Z,22.7
2022-07-29T10:23:00.146Z,23
2022-07-29T10:24:00.965Z,23
2022-07-29T10:25:00.423Z,23
2022-07-29T10:26:00.483Z,22.8
2022-07-29T10:27:00.554Z,22.8
2022-07-29T10:28:00.665Z,22.9
2022-07-29T10:28:59.725Z,22.9
2022-07-29T10:29:59.775Z,23
2022-07-29T10:30:59.850Z,23.1
2022-07-29T10:31:59.936Z,23
2022-07-29T10:32:59.996Z,23
2022-07-29T10:34:00.069Z,22.8
2022-07-29T10:35:00.338Z,22.9
2022-07-29T10:36:00.406Z,22.8
2022-07-29T10:37:00.461Z,22.7
2022-07-29T10:38:00.356Z,22.8
2022-07-29T10:39:00.311Z,22.8
2022-07-29T10:40:00.304Z,22.8
2022-07-29T10:41:00.354Z,23.1
2022-07-29T10:42:00.404Z,23.3
2022-07-29T10:43:00.454Z,23.4
2022-07-29T10:44:00.139Z,23.2
2022-07-29T10:45:00.192Z,23.2
2022-07-29T10:46:00.248Z,23.3
2022-07-29T10:47:00.343Z,23.4
2022-07-29T10:48:00.428Z,23.5
2022-07-29T10:49:00.604Z,23.5
2022-07-29T10:51:00.366Z,23.6
2022-07-29T10:52:00.164Z,23.8
2022-07-29T10:52:59.836Z,23.7
2022-07-29T10:53:59.905Z,23.8
2022-07-29T10:54:59.966Z,23.7
2022-07-29T10:56:00.016Z,23.3
2022-07-29T10:57:00.071Z,23.2
2022-07-29T10:58:00.117Z,23.2
2022-07-29T10:59:00.209Z,23.4
2022-07-29T11:00:00.258Z,23.3
2022-07-29T11:01:00.308Z,23.2
2022-07-29T11:02:28.130Z,23.4
2022-07-29T11:03:00.476Z,23.5
2022-07-29T11:04:00.321Z,23.4
2022-07-29T11:05:00.374Z,23.2
2022-07-29T11:06:00.438Z,23.2
2022-07-29T11:07:00.492Z,23.4
2022-07-29T11:08:00.488Z,23.4
2022-07-29T11:09:00.337Z,23.2
2022-07-29T11:10:00.388Z,23.2
2022-07-29T11:11:00.438Z,23.3
2022-07-29T11:12:00.438Z,23.4
2022-07-29T11:12:59.684Z,23.6
2022-07-29T11:13:59.733Z,23.7
2022-07-29T11:14:59.783Z,24.1
2022-07-29T11:16:00.174Z,24.3
2022-07-29T11:17:00.226Z,24.5
2022-07-29T11:18:00.499Z,24.2
2022-07-29T11:19:00.560Z,24.1
2022-07-29T11:19:59.611Z,24.3
2022-07-29T11:20:59.665Z,24.7
2022-07-29T11:21:59.747Z,25.1
2022-07-29T11:22:59.949Z,25.3
2022-07-29T11:23:59.999Z,25.4
2022-07-29T11:25:00.058Z,25.4
2022-07-29T11:26:00.135Z,25
2022-07-29T11:27:00.661Z,24.7
2022-07-29T11:27:59.875Z,24.6
2022-07-29T11:28:59.928Z,24.6
2022-07-29T11:30:01.060Z,24.6
2022-07-29T11:31:00.297Z,24.4
2022-07-29T11:31:59.911Z,24.3
2022-07-29T11:32:59.962Z,24.3
2022-07-29T11:34:05.353Z,24.5
2022-07-29T11:35:00.511Z,24.8
2022-07-29T11:36:03.257Z,24.8
2022-07-29T11:37:00.531Z,24.7
2022-07-29T11:37:59.608Z,24.6
2022-07-29T11:40:01.929Z,24.4
2022-07-29T11:45:04.251Z,24.4
2022-07-29T11:45:59.951Z,24.4
2022-07-29T11:47:00.016Z,24.5
2022-07-29T11:48:05.622Z,24.6
2022-07-29T11:48:59.904Z,24.6
2022-07-29T11:49:59.999Z,24.7
2022-07-29T11:51:00.297Z,24.7
2022-07-29T11:52:00.753Z,24.7
2022-07-29T11:53:00.414Z,24.6
2022-07-29T11:54:04.079Z,24.7
2022-07-29T11:55:00.690Z,24.9
2022-07-29T11:55:59.961Z,24.6
2022-07-29T11:57:00.016Z,24.6
2022-07-29T11:58:03.667Z,24.4
2022-07-29T11:59:00.087Z,24.5
2022-07-29T12:00:04.558Z,24.4
2022-07-29T12:01:04.357Z,24.4
2022-07-29T12:02:18.271Z,24.3
2022-07-29T12:03:00.603Z,24.3
2022-07-29T12:03:59.755Z,24.4
2022-07-29T12:04:59.854Z,24.5
2022-07-29T12:05:59.974Z,24.5
2022-07-29T12:07:00.579Z,24.5
2022-07-29T12:07:59.723Z,24.7
2022-07-29T12:08:59.816Z,24.9
2022-07-29T12:09:59.869Z,24.9
2022-07-29T12:10:59.920Z,24.9
2022-07-29T12:12:04.716Z,24.9
2022-07-29T12:12:59.976Z,24.9
2022-07-29T12:14:00.020Z,24.7
2022-07-29T12:14:59.687Z,24.5
2022-07-29T12:15:59.897Z,24.7
2022-07-29T12:17:00.273Z,24.7
2022-07-29T12:18:03.832Z,24.7
2022-07-29T12:19:00.381Z,24.7
2022-07-29T12:20:00.440Z,24.8
2022-07-29T12:21:03.475Z,24.6
2022-07-29T12:22:00.932Z,24.5
2022-07-29T12:23:01.359Z,24.5
2022-07-29T12:24:05.640Z,24.4
2022-07-29T12:25:11.734Z,24.3
2022-07-29T12:26:00.694Z,24.2
2022-07-29T12:27:00.746Z,24.5
2022-07-29T12:28:01.400Z,24.5
2022-07-29T12:29:02.293Z,24.4
2022-07-29T12:30:00.545Z,24
2022-07-29T14:33:01.218Z,23.2
2022-07-29T14:34:02.796Z,23.2
2022-07-29T14:35:00.995Z,23.2
2022-07-29T14:36:01.425Z,23.2
2022-07-29T14:36:59.522Z,23.2
2022-07-29T14:37:59.574Z,23.1
2022-07-29T14:38:59.630Z,23.1
2022-07-29T14:39:59.684Z,23
2022-07-29T14:40:59.759Z,22.9
2022-07-29T14:42:00.236Z,22.9
2022-07-29T14:42:59.766Z,23
2022-07-29T14:43:59.817Z,23
2022-07-29T14:44:59.873Z,22.9
2022-07-29T14:46:02.982Z,22.9
2022-07-29T14:46:59.939Z,23
2022-07-29T14:48:00.010Z,23
2022-07-29T14:49:00.193Z,22.9
2022-07-29T14:49:59.299Z,22.9
2022-07-29T14:51:03.072Z,22.9
2022-07-29T14:51:59.633Z,22.9
2022-07-29T14:52:59.998Z,22.9
2022-07-29T14:54:00.067Z,23
2022-07-29T14:54:59.127Z,23
2022-07-29T14:56:10.234Z,23
2022-07-29T14:56:59.800Z,22.9
2022-07-29T14:58:07.928Z,22.9
2022-07-29T14:58:59.942Z,22.9
2022-07-29T15:00:00.005Z,22.9
2022-07-29T15:01:00.176Z,22.9
2022-07-29T15:01:59.521Z,22.9
2022-07-29T15:03:02.127Z,22.9
2022-07-29T15:04:00.022Z,22.9
2022-07-29T15:04:59.119Z,23
2022-07-29T15:05:59.172Z,23
2022-07-29T15:06:59.225Z,23
2022-07-29T15:07:59.273Z,22.9
2022-07-29T15:08:59.319Z,22.9
2022-07-29T15:09:59.742Z,22.9
2022-07-29T15:11:59.830Z,22.9
2022-07-29T15:12:59.144Z,22.9
2022-07-29T15:13:59.194Z,22.9
2022-07-29T15:14:59.248Z,22.9
2022-07-29T15:16:00.265Z,23
2022-07-29T15:16:59.562Z,23
2022-07-29T15:17:59.399Z,23
2022-07-29T15:19:01.111Z,23
2022-07-29T15:19:59.307Z,23.1
2022-07-29T15:20:59.398Z,23.1
2022-07-29T15:21:59.917Z,23.3
2022-07-29T15:23:00.013Z,23.5
2022-07-29T15:23:59.064Z,23.6
2022-07-29T15:24:59.122Z,23.8
2022-07-29T15:25:59.181Z,24
2022-07-29T15:26:59.243Z,24.1
2022-07-29T15:28:59.480Z,0
2022-07-29T15:29:59.660Z,0
2022-07-29T15:30:59.706Z,0
2022-07-29T15:32:00.189Z,0
2022-07-29T15:32:59.504Z,0
2022-07-29T15:34:03.637Z,0